createdAt,value
2018-07-19T00:03:07.296Z,19.29
2018-07-19T00:05:35.791Z,19.17
2018-07-19T00:08:04.280Z,19.16
2018-07-19T00:10:33.089Z,19.22
2018-07-19T00:13:01.525Z,19.15
2018-07-19T00:15:30.020Z,19.13
2018-07-19T00:17:58.898Z,19.11
2018-07-19T00:20:27.946Z,18.95
2018-07-19T00:22:56.641Z,18.77
2018-07-19T00:25:25.096Z,18.87
2018-07-19T00:27:53.777Z,18.83
2018-07-19T00:30:22.320Z,18.79
2018-07-19T00:32:50.848Z,18.81
2018-07-19T00:35:19.327Z,18.84
2018-07-19T00:37:47.777Z,18.76
2018-07-19T00:40:16.239Z,18.74
2018-07-19T00:42:44.714Z,18.58
2018-07-19T00:45:13.297Z,18.64
2018-07-19T00:47:41.901Z,18.75
2018-07-19T00:50:10.424Z,18.66
2018-07-19T00:52:38.861Z,18.48
2018-07-19T00:55:07.979Z,18.56
2018-07-19T00:57:36.471Z,18.59
2018-07-19T01:00:05.019Z,18.46
2018-07-19T01:02:33.484Z,18.36
2018-07-19T01:05:01.932Z,18.48
2018-07-19T01:07:30.413Z,18.64
2018-07-19T01:09:58.860Z,18.62
2018-07-19T01:12:27.367Z,18.43
2018-07-19T01:14:55.799Z,18.54
2018-07-19T01:17:24.222Z,18.42
2018-07-19T01:19:52.724Z,18.14
2018-07-19T01:22:21.327Z,18.23
2018-07-19T01:24:49.796Z,18.26
2018-07-19T01:27:18.253Z,18.12
2018-07-19T01:29:46.778Z,17.85
2018-07-19T01:32:15.240Z,18.05
2018-07-19T01:34:43.767Z,18.08
2018-07-19T01:37:12.457Z,18.18
2018-07-19T01:39:40.944Z,18.11
2018-07-19T01:42:41.743Z,18.00
2018-07-19T01:45:11.019Z,17.93
2018-07-19T01:47:39.959Z,17.91
2018-07-19T01:50:09.528Z,17.89
2018-07-19T01:52:38.182Z,17.84
2018-07-19T01:55:07.278Z,17.84
2018-07-19T01:57:35.699Z,17.95
2018-07-19T02:00:05.085Z,17.89
2018-07-19T02:02:33.584Z,17.86
2018-07-19T02:05:02.064Z,17.83
2018-07-19T02:07:30.560Z,17.66
2018-07-19T02:09:59.212Z,17.69
2018-07-19T02:12:27.696Z,17.57
2018-07-19T02:14:56.131Z,17.59
2018-07-19T02:17:24.583Z,17.55
2018-07-19T02:19:53.043Z,17.50
2018-07-19T02:22:21.728Z,17.49
2018-07-19T02:24:50.221Z,17.33
2018-07-19T02:27:18.689Z,17.43
2018-07-19T02:29:47.099Z,17.38
2018-07-19T02:32:15.543Z,17.36
2018-07-19T02:34:44.065Z,17.28
2018-07-19T02:37:12.576Z,17.23
2018-07-19T02:39:41.104Z,17.10
2018-07-19T02:42:09.615Z,17.29
2018-07-19T02:44:38.568Z,17.27
2018-07-19T02:47:06.998Z,17.32
2018-07-19T02:49:35.767Z,17.48
2018-07-19T02:52:04.330Z,17.22
2018-07-19T02:54:32.919Z,17.25
2018-07-19T02:57:01.547Z,17.06
2018-07-19T02:59:30.031Z,18.09
2018-07-19T03:01:58.478Z,19.42
2018-07-19T03:04:26.978Z,17.99
2018-07-19T03:06:55.420Z,18.09
2018-07-19T03:09:24.219Z,17.98
2018-07-19T03:11:52.716Z,17.85
2018-07-19T03:14:21.625Z,17.97
2018-07-19T03:16:50.058Z,17.61
2018-07-19T03:19:18.520Z,18.26
2018-07-19T03:21:47.014Z,17.56
2018-07-19T03:24:15.484Z,16.92
2018-07-19T03:26:43.924Z,18.11
2018-07-19T03:29:12.390Z,19.17
2018-07-19T03:31:41.009Z,17.80
2018-07-19T03:34:09.464Z,17.06
2018-07-19T03:36:37.915Z,16.95
2018-07-19T03:39:08.996Z,16.80
2018-07-19T03:41:37.432Z,18.04
2018-07-19T03:44:06.119Z,18.22
2018-07-19T03:46:34.819Z,18.64
2018-07-19T03:49:03.377Z,19.08
2018-07-19T03:51:31.846Z,19.38
2018-07-19T03:54:00.324Z,17.99
2018-07-19T03:56:28.803Z,17.42
2018-07-19T03:58:57.315Z,17.70
2018-07-19T04:01:25.759Z,17.42
2018-07-19T04:03:54.267Z,17.38
2018-07-19T04:06:22.705Z,17.26
2018-07-19T04:08:51.188Z,17.39
2018-07-19T04:11:19.672Z,17.63
2018-07-19T04:13:48.337Z,17.16
2018-07-19T04:16:16.811Z,17.47
2018-07-19T04:18:45.288Z,17.09
2018-07-19T04:21:13.782Z,17.62
2018-07-19T04:23:42.600Z,17.56
2018-07-19T04:26:11.303Z,17.65
2018-07-19T04:28:39.795Z,17.35
2018-07-19T04:31:08.272Z,17.55
2018-07-19T04:33:36.770Z,17.37
2018-07-19T04:36:05.272Z,17.50
2018-07-19T04:38:33.763Z,17.70
2018-07-19T04:41:02.219Z,17.62
2018-07-19T04:43:30.658Z,17.65
2018-07-19T04:45:59.139Z,18.11
2018-07-19T04:48:28.390Z,17.61
2018-07-19T04:50:56.964Z,17.73
2018-07-19T04:53:25.410Z,17.82
2018-07-19T04:55:53.878Z,17.91
2018-07-19T04:58:23.481Z,17.99
2018-07-19T05:00:52.812Z,17.88
2018-07-19T05:03:21.396Z,17.99
2018-07-19T05:05:49.888Z,18.16
2018-07-19T05:08:18.765Z,18.35
2018-07-19T05:10:47.200Z,18.36
2018-07-19T05:13:15.716Z,18.32
2018-07-19T05:15:44.788Z,18.45
2018-07-19T05:18:13.262Z,18.53
2018-07-19T05:20:41.777Z,18.62
2018-07-19T05:23:10.507Z,18.68
2018-07-19T05:25:38.949Z,18.81
2018-07-19T05:28:07.413Z,18.91
2018-07-19T05:30:35.955Z,19.05
2018-07-19T05:33:04.483Z,18.98
2018-07-19T05:35:33.208Z,19.24
2018-07-19T05:38:01.708Z,19.22
2018-07-19T05:40:30.216Z,19.29
2018-07-19T05:42:58.696Z,19.38
2018-07-19T05:45:27.537Z,19.53
2018-07-19T05:47:55.995Z,19.49
2018-07-19T05:50:24.543Z,19.70
2018-07-19T05:52:53.039Z,19.83
2018-07-19T05:55:22.044Z,19.89
2018-07-19T05:57:50.609Z,19.92
2018-07-19T06:00:19.103Z,20.05
2018-07-19T06:02:47.587Z,20.18
2018-07-19T06:05:16.093Z,20.26
2018-07-19T06:07:44.844Z,20.32
2018-07-19T06:10:13.344Z,20.41
2018-07-19T06:12:41.828Z,20.45
2018-07-19T06:15:10.296Z,20.52
2018-07-19T06:17:38.727Z,20.48
2018-07-19T06:20:08.718Z,20.65
2018-07-19T06:22:37.237Z,20.85
2018-07-19T06:25:06.126Z,21.04
2018-07-19T06:27:34.859Z,21.07
2018-07-19T06:30:03.421Z,21.18
2018-07-19T06:32:31.927Z,21.33
2018-07-19T06:35:00.651Z,21.31
2018-07-19T06:37:29.120Z,21.32
2018-07-19T06:39:57.667Z,21.61
2018-07-19T06:42:26.243Z,21.69
2018-07-19T06:44:54.736Z,21.76
2018-07-19T06:47:23.205Z,21.81
2018-07-19T06:49:51.683Z,22.00
2018-07-19T06:52:20.139Z,22.13
2018-07-19T06:54:48.631Z,22.20
2018-07-19T06:57:17.094Z,22.29
2018-07-19T06:59:45.555Z,22.26
2018-07-19T07:02:14.336Z,22.45
2018-07-19T07:04:43.052Z,22.55
2018-07-19T07:07:11.531Z,22.70
2018-07-19T07:09:39.987Z,22.85
2018-07-19T07:22:05.719Z,23.02
2018-07-19T07:24:34.222Z,23.01
2018-07-19T07:27:02.671Z,23.17
2018-07-19T07:29:31.140Z,23.41
2018-07-19T07:31:59.696Z,23.70
2018-07-19T07:34:28.512Z,23.72
2018-07-19T07:36:56.977Z,23.87
2018-07-19T07:39:25.501Z,24.05
2018-07-19T07:41:54.017Z,23.96
2018-07-19T07:44:22.968Z,23.88
2018-07-19T07:46:51.471Z,23.76
2018-07-19T07:49:19.930Z,23.93
2018-07-19T07:51:48.369Z,23.94
2018-07-19T07:54:16.938Z,24.11
2018-07-19T07:56:45.534Z,24.10
2018-07-19T07:59:14.056Z,24.51
2018-07-19T08:01:42.499Z,24.66
2018-07-19T08:04:11.004Z,24.41
2018-07-19T08:06:39.440Z,24.42
2018-07-19T08:09:09.368Z,24.55
2018-07-19T08:11:38.186Z,24.59
2018-07-19T08:14:06.763Z,24.60
2018-07-19T08:16:35.203Z,24.85
2018-07-19T08:19:03.739Z,24.63
2018-07-19T08:21:32.343Z,24.96
2018-07-19T08:24:00.810Z,25.06
2018-07-19T08:26:29.312Z,25.19
2018-07-19T08:28:57.825Z,25.36
2018-07-19T08:31:26.320Z,25.28
2018-07-19T08:33:54.771Z,25.53
2018-07-19T08:36:23.223Z,25.63
2018-07-19T08:38:51.743Z,25.56
2018-07-19T08:41:20.191Z,25.66
2018-07-19T08:43:48.651Z,25.71
2018-07-19T08:46:17.097Z,25.68
2018-07-19T08:48:45.622Z,26.02
2018-07-19T08:51:14.052Z,25.93
2018-07-19T08:53:42.582Z,25.74
2018-07-19T08:56:11.030Z,26.02
2018-07-19T08:58:39.583Z,26.28
2018-07-19T09:01:08.096Z,26.35
2018-07-19T09:03:36.553Z,26.25
2018-07-19T09:06:05.060Z,26.24
2018-07-19T09:08:33.564Z,26.32
2018-07-19T09:11:02.011Z,26.81
2018-07-19T09:13:30.664Z,26.58
2018-07-19T09:15:59.175Z,26.73
2018-07-19T09:18:27.804Z,26.53
2018-07-19T09:20:56.311Z,26.44
2018-07-19T09:23:24.770Z,26.69
2018-07-19T09:25:53.374Z,26.76
2018-07-19T09:28:22.319Z,26.67
2018-07-19T09:30:50.781Z,26.75
2018-07-19T09:36:18.528Z,27.18
2018-07-19T09:38:47.003Z,27.09
2018-07-19T09:41:15.441Z,27.50
2018-07-19T09:43:43.860Z,27.35
2018-07-19T09:46:12.336Z,27.60
2018-07-19T09:48:40.777Z,27.27
2018-07-19T09:51:09.247Z,27.72
2018-07-19T09:53:37.815Z,27.72
2018-07-19T09:56:06.331Z,27.69
2018-07-19T09:58:34.818Z,27.63
2018-07-19T10:01:08.627Z,27.83
2018-07-19T10:03:37.149Z,27.85
2018-07-19T10:06:05.625Z,28.77
2018-07-19T10:08:34.100Z,28.16
2018-07-19T10:11:02.799Z,28.01
2018-07-19T10:13:31.304Z,28.21
2018-07-19T10:16:00.075Z,28.33
2018-07-19T10:18:28.723Z,28.34
2018-07-19T10:20:57.223Z,28.48
2018-07-19T10:23:26.059Z,28.75
2018-07-19T10:25:55.621Z,28.91
2018-07-19T10:28:24.076Z,28.86
2018-07-19T10:30:52.557Z,28.41
2018-07-19T10:33:21.322Z,29.18
2018-07-19T10:35:49.999Z,28.87
2018-07-19T10:38:18.503Z,28.76
2018-07-19T10:40:47.056Z,28.86
2018-07-19T10:43:15.533Z,29.01
2018-07-19T10:45:44.315Z,29.04
2018-07-19T10:48:12.787Z,29.04
2018-07-19T10:50:41.399Z,29.05
2018-07-19T10:53:09.839Z,28.95
2018-07-19T10:55:38.241Z,29.56
2018-07-19T10:58:06.790Z,29.62
2018-07-19T11:00:35.220Z,29.97
2018-07-19T11:03:03.923Z,28.93
2018-07-19T11:05:32.384Z,29.08
2018-07-19T11:08:00.782Z,29.49
2018-07-19T11:10:29.244Z,29.44
2018-07-19T11:12:57.847Z,29.34
2018-07-19T11:15:26.648Z,29.48
2018-07-19T11:17:55.636Z,29.13
2018-07-19T11:20:24.923Z,28.85
2018-07-19T11:22:53.414Z,30.03
2018-07-19T11:25:21.896Z,29.76
2018-07-19T11:27:50.314Z,28.68
2018-07-19T11:30:18.720Z,29.59
2018-07-19T11:32:47.232Z,29.77
2018-07-19T11:35:15.662Z,29.15
2018-07-19T11:37:44.342Z,29.64
2018-07-19T11:40:12.745Z,29.32
2018-07-19T11:42:41.155Z,29.27
2018-07-19T11:45:09.604Z,30.60
2018-07-19T11:47:38.039Z,30.38
2018-07-19T11:50:06.788Z,31.09
2018-07-19T11:52:35.211Z,31.27
2018-07-19T11:55:03.914Z,32.18
2018-07-19T11:57:32.310Z,30.76
2018-07-19T12:00:00.743Z,32.07
2018-07-19T12:02:29.237Z,32.63
2018-07-19T12:04:58.057Z,32.45
2018-07-19T12:07:26.532Z,31.21
2018-07-19T12:09:54.927Z,32.25
2018-07-19T12:12:23.362Z,32.44
2018-07-19T12:14:51.836Z,31.52
2018-07-19T12:17:20.295Z,31.88
2018-07-19T12:19:48.721Z,33.61
2018-07-19T12:22:17.292Z,33.32
2018-07-19T12:24:46.314Z,31.57
2018-07-19T12:27:15.391Z,30.88
2018-07-19T12:29:44.019Z,32.78
2018-07-19T12:32:12.474Z,33.25
2018-07-19T12:34:40.874Z,32.87
2018-07-19T12:37:09.324Z,32.57
2018-07-19T12:39:37.755Z,34.23
2018-07-19T12:42:06.184Z,34.78
2018-07-19T12:44:34.641Z,33.85
2018-07-19T12:47:03.364Z,34.67
2018-07-19T12:49:31.846Z,35.43
2018-07-19T12:52:00.372Z,35.07
2018-07-19T12:54:28.806Z,33.28
2018-07-19T12:56:57.459Z,34.20
2018-07-19T12:59:25.897Z,33.04
2018-07-19T13:01:54.749Z,33.91
2018-07-19T13:04:23.496Z,34.04
2018-07-19T13:06:51.897Z,33.71
2018-07-19T13:09:20.574Z,33.80
2018-07-19T13:11:49.006Z,34.40
2018-07-19T13:14:17.501Z,34.04
2018-07-19T13:16:46.092Z,33.98
2018-07-19T13:19:14.574Z,34.49
2018-07-19T13:21:43.025Z,33.66
2018-07-19T13:24:11.542Z,33.54
2018-07-19T13:26:40.040Z,33.77
2018-07-19T13:29:08.434Z,33.35
2018-07-19T13:31:36.951Z,34.07
2018-07-19T13:34:05.915Z,34.19
2018-07-19T13:36:34.631Z,34.30
2018-07-19T13:39:03.511Z,33.02
2018-07-19T13:41:31.974Z,33.32
2018-07-19T13:44:00.683Z,34.88
2018-07-19T13:46:29.105Z,33.17
2018-07-19T13:48:57.525Z,34.19
2018-07-19T13:51:26.027Z,32.79
2018-07-19T13:54:18.721Z,32.95
2018-07-19T13:56:47.408Z,33.57
2018-07-19T13:59:16.698Z,34.96
2018-07-19T14:01:45.222Z,34.85
2018-07-19T14:04:13.776Z,35.03
2018-07-19T14:06:42.232Z,34.73
2018-07-19T14:09:13.657Z,34.96
2018-07-19T14:11:42.308Z,34.42
2018-07-19T14:14:11.307Z,35.23
2018-07-19T14:16:39.758Z,35.23
2018-07-19T14:19:08.479Z,36.12
2018-07-19T14:21:36.939Z,34.94
2018-07-19T14:24:05.521Z,34.05
2018-07-19T14:26:33.957Z,35.25
2018-07-19T14:29:02.375Z,35.54
2018-07-19T14:31:30.847Z,34.43
2018-07-19T14:33:59.274Z,34.03
2018-07-19T14:36:27.730Z,34.60
2018-07-19T14:38:56.173Z,34.65
2018-07-19T14:41:24.762Z,34.17
2018-07-19T14:43:53.211Z,34.83
2018-07-19T14:46:22.264Z,33.73
2018-07-19T14:48:51.103Z,35.24
2018-07-19T14:51:19.563Z,35.15
2018-07-19T14:53:47.990Z,35.20
2018-07-19T14:56:16.564Z,35.27
2018-07-19T14:58:44.983Z,34.16
2018-07-19T15:01:13.855Z,34.57
2018-07-19T15:03:42.316Z,35.80
2018-07-19T15:06:10.771Z,35.67
2018-07-19T15:08:39.208Z,35.49
2018-07-19T15:11:07.699Z,36.20
2018-07-19T15:13:36.189Z,35.14
2018-07-19T15:16:04.643Z,35.52
2018-07-19T15:18:33.071Z,36.11
2018-07-19T15:21:01.526Z,36.57
2018-07-19T15:23:29.954Z,35.89
2018-07-19T15:25:58.780Z,36.30
2018-07-19T15:28:27.226Z,35.08
2018-07-19T15:30:55.825Z,35.35
2018-07-19T15:33:24.647Z,36.54
2018-07-19T15:35:53.099Z,35.95
2018-07-19T15:38:21.547Z,35.60
2018-07-19T15:40:49.987Z,35.26
2018-07-19T15:43:18.484Z,34.69
2018-07-19T15:45:46.932Z,34.89
2018-07-19T15:48:15.385Z,35.78
2018-07-19T15:50:44.096Z,36.80
2018-07-19T15:53:12.563Z,36.33
2018-07-19T15:55:41.009Z,37.59
2018-07-19T16:00:52.385Z,33.81
2018-07-19T16:03:20.859Z,35.82
2018-07-19T16:05:49.322Z,35.14
2018-07-19T16:08:17.826Z,35.56
2018-07-19T16:10:46.263Z,34.71
2018-07-19T16:13:14.928Z,36.56
2018-07-19T16:15:43.388Z,36.08
2018-07-19T16:18:11.872Z,36.17
2018-07-19T16:20:40.413Z,35.28
2018-07-19T16:23:08.830Z,36.34
2018-07-19T16:25:37.235Z,36.37
2018-07-19T16:28:05.793Z,37.32
2018-07-19T16:30:34.455Z,35.74
2018-07-19T16:33:03.175Z,35.24
2018-07-19T16:35:31.584Z,35.02
2018-07-19T16:38:00.036Z,36.23
2018-07-19T16:40:28.458Z,36.31
2018-07-19T16:42:56.962Z,35.15
2018-07-19T16:45:25.679Z,36.35
2018-07-19T16:47:54.392Z,35.69
2018-07-19T16:50:22.824Z,37.63
2018-07-19T16:52:51.264Z,35.88
2018-07-19T16:55:19.762Z,35.71
2018-07-19T16:57:48.513Z,35.82
2018-07-19T17:00:16.915Z,36.65
2018-07-19T17:02:45.943Z,37.85
2018-07-19T17:05:14.452Z,37.41
2018-07-19T17:07:42.876Z,36.52
2018-07-19T17:10:11.261Z,36.04
2018-07-19T17:12:39.701Z,36.30
2018-07-19T17:15:08.152Z,36.42
2018-07-19T17:17:37.018Z,35.56
2018-07-19T17:20:05.784Z,35.96
2018-07-19T17:22:34.246Z,34.43
2018-07-19T17:25:03.629Z,35.25
2018-07-19T17:27:32.137Z,34.13
2018-07-19T17:30:00.661Z,35.28
2018-07-19T17:32:29.147Z,35.13
2018-07-19T17:34:57.759Z,36.07
2018-07-19T17:37:26.274Z,34.35
2018-07-19T17:39:55.012Z,34.62
2018-07-19T17:42:23.692Z,35.14
2018-07-19T17:44:52.118Z,33.94
2018-07-19T17:47:21.079Z,34.57
2018-07-19T17:49:49.581Z,34.57
2018-07-19T17:52:18.003Z,33.80
2018-07-19T17:54:46.432Z,33.67
2018-07-19T17:57:14.909Z,32.80
2018-07-19T17:59:43.705Z,33.14
2018-07-19T18:02:12.140Z,32.59
2018-07-19T18:04:40.596Z,33.26
2018-07-19T18:07:09.058Z,32.75
2018-07-19T18:09:37.474Z,32.86
2018-07-19T18:12:05.961Z,32.72
2018-07-19T18:14:34.447Z,32.42
2018-07-19T18:17:02.846Z,32.06
2018-07-19T18:19:31.323Z,31.84
2018-07-19T18:21:59.757Z,31.57
2018-07-19T18:24:28.225Z,30.72
2018-07-19T18:26:56.679Z,30.72
2018-07-19T18:29:25.100Z,30.04
2018-07-19T18:31:53.748Z,29.57
2018-07-19T18:34:22.318Z,29.42
2018-07-19T18:36:50.727Z,29.28
2018-07-19T18:39:19.168Z,28.76
2018-07-19T18:41:47.626Z,28.08
2018-07-19T18:44:16.093Z,27.78
2018-07-19T18:46:44.625Z,27.58
2018-07-19T18:49:13.971Z,27.37
2018-07-19T18:51:42.455Z,27.11
2018-07-19T18:54:11.195Z,26.94
2018-07-19T18:56:39.678Z,26.75
2018-07-19T18:59:08.150Z,26.62
2018-07-19T19:01:36.576Z,26.52
2018-07-19T19:04:05.181Z,26.38
2018-07-19T19:06:33.722Z,26.20
2018-07-19T19:09:02.293Z,26.02
2018-07-19T19:11:30.775Z,25.91
2018-07-19T19:13:59.299Z,25.90
2018-07-19T19:16:27.864Z,25.71
2018-07-19T19:18:56.337Z,25.55
2018-07-19T19:21:25.082Z,25.61
2018-07-19T19:23:53.756Z,25.50
2018-07-19T19:26:22.207Z,25.41
2018-07-19T19:28:50.664Z,25.41
2018-07-19T19:31:19.285Z,25.30
2018-07-19T19:33:47.733Z,25.20
2018-07-19T19:36:16.179Z,25.11
2018-07-19T19:38:44.874Z,25.01
2018-07-19T19:41:13.537Z,24.62
2018-07-19T19:43:42.043Z,24.44
2018-07-19T19:46:10.771Z,24.37
2018-07-19T19:48:39.251Z,24.33
2018-07-19T19:51:08.079Z,24.17
2018-07-19T19:53:37.042Z,24.01
2018-07-19T19:56:05.539Z,23.93
2018-07-19T19:58:34.509Z,24.16
2018-07-19T20:01:02.976Z,24.17
2018-07-19T20:03:31.383Z,23.98
2018-07-19T20:05:59.944Z,23.93
2018-07-19T20:08:28.497Z,23.70
2018-07-19T20:10:56.963Z,23.36
2018-07-19T20:13:25.435Z,23.32
2018-07-19T20:15:53.836Z,23.40
2018-07-19T20:18:22.321Z,23.14
2018-07-19T20:20:50.750Z,22.94
2018-07-19T20:23:19.386Z,23.11
2018-07-19T20:25:47.800Z,23.33
2018-07-19T20:28:16.733Z,23.26
2018-07-19T20:30:45.548Z,23.32
2018-07-19T20:33:14.270Z,23.02
2018-07-19T20:35:42.727Z,23.05
2018-07-19T20:38:11.260Z,22.80
2018-07-19T20:40:40.063Z,23.12
2018-07-19T20:43:08.931Z,23.11
2018-07-19T20:45:37.358Z,22.93
2018-07-19T20:48:05.827Z,22.49
2018-07-19T20:50:34.645Z,22.53
2018-07-19T20:53:03.244Z,22.89
2018-07-19T20:55:31.736Z,23.18
2018-07-19T20:58:00.245Z,22.55
2018-07-19T21:00:29.229Z,21.97
2018-07-19T21:02:57.671Z,22.00
2018-07-19T21:05:26.356Z,21.91
2018-07-19T21:07:55.069Z,21.80
2018-07-19T21:10:23.636Z,21.87
2018-07-19T21:12:52.587Z,21.73
2018-07-19T21:15:21.012Z,21.88
2018-07-19T21:17:49.954Z,21.66
2018-07-19T21:20:18.489Z,21.46
2018-07-19T21:22:46.927Z,21.57
2018-07-19T21:25:15.383Z,21.34
2018-07-19T21:27:43.866Z,21.27
2018-07-19T21:30:12.635Z,21.20
2018-07-19T21:32:41.051Z,21.07
2018-07-19T21:35:09.514Z,21.15
2018-07-19T21:37:38.150Z,21.14
2018-07-19T21:40:06.722Z,20.86
2018-07-19T21:42:35.435Z,20.90
2018-07-19T21:45:04.010Z,20.71
2018-07-19T21:47:32.878Z,20.96
2018-07-19T21:50:01.321Z,20.75
2018-07-19T21:52:29.755Z,20.67
2018-07-19T21:54:58.231Z,20.42
2018-07-19T21:57:26.685Z,20.47
2018-07-19T21:59:55.375Z,20.45
2018-07-19T22:02:23.814Z,20.63
2018-07-19T22:04:52.232Z,20.52
2018-07-19T22:07:20.709Z,20.39
2018-07-19T22:09:49.383Z,20.34
2018-07-19T22:12:17.835Z,20.49
2018-07-19T22:14:46.272Z,20.47
2018-07-19T22:17:14.755Z,20.23
2018-07-19T22:19:43.159Z,20.20
2018-07-19T22:22:11.589Z,20.25
2018-07-19T22:24:40.107Z,20.05
2018-07-19T22:27:08.538Z,19.97
2018-07-19T22:29:37.081Z,19.92
2018-07-19T22:32:05.838Z,20.04
2018-07-19T22:34:34.333Z,19.93
2018-07-19T22:37:02.782Z,19.85
2018-07-19T22:39:31.223Z,19.83
2018-07-19T22:41:59.712Z,19.70
2018-07-19T22:44:28.239Z,19.76
2018-07-19T22:46:56.721Z,19.64
2018-07-19T22:49:27.931Z,19.72
2018-07-19T22:51:56.376Z,19.69
2018-07-19T22:54:24.830Z,19.60
2018-07-19T22:56:53.315Z,19.44
2018-07-19T22:59:22.343Z,19.36
2018-07-19T23:01:50.775Z,19.37
2018-07-19T23:04:19.272Z,19.29
2018-07-19T23:06:47.751Z,19.28
2018-07-19T23:09:16.235Z,19.26
2018-07-19T23:11:44.679Z,19.17
2018-07-19T23:14:13.207Z,19.21
2018-07-19T23:16:41.651Z,19.18
2018-07-19T23:19:10.138Z,19.01
2018-07-19T23:21:38.582Z,18.94
2018-07-19T23:24:07.075Z,18.86
2018-07-19T23:26:35.639Z,18.74
2018-07-19T23:29:04.111Z,18.58
2018-07-19T23:31:32.663Z,18.70
2018-07-19T23:34:01.190Z,18.83
2018-07-19T23:36:33.795Z,18.87
2018-07-19T23:39:09.329Z,18.60
2018-07-19T23:41:44.771Z,18.59
2018-07-19T23:44:20.575Z,18.43
2018-07-19T23:46:53.923Z,18.62
2018-07-19T23:49:22.442Z,18.54
2018-07-19T23:51:51.095Z,18.37
2018-07-19T23:54:19.561Z,18.39
2018-07-19T23:56:48.095Z,18.33
2018-07-19T23:59:16.531Z,18.30
